RCTP/TPE METAR and TAF weather

Enter ICAO airport designator
Station Type Date Time Source
RCTP METAR 2019/05/26 01:00 UTC NOAA

RCTP 260100Z VRB01KT 9999 FEW012 SCT050 32/25 Q1011 NOSIG RMK A2986


Station Type Date Time Source
RCTP Decoded METAR 2019/05/26 01:00 UTC NOAA

Chiang Kai Shek, Taiwan (RCTP) 25-05N 121-13E
May 25, 2019 - 09:00 PM EDT / 2019.05.26 0100 UTC
Wind: Variable at 1 MPH (1 KT):0
Visibility: greater than 7 mile(s):0
Sky conditions: partly cloudy
Temperature: 89 F (32 C)
Heat index: 100.6 F (38.1 C):1
Dew Point: 77 F (25 C)
Relative Humidity: 66%
Pressure (altimeter): 29.85 in. Hg (1011 hPa)
ob: RCTP 260100Z VRB01KT 9999 FEW012 SCT050 32/25 Q1011 NOSIG RMK A2986
cycle: 1

Station Type Date Time Source
RCTP TAF 2019/05/25 18:03 UTC NOAA

TAF RCTP 251700Z 2518/2624 16005KT 9999 FEW012 BKN032
BECMG 2600/2602 33008KT
TEMPO 2607/2610 FEW010 FEW015CB BKN022 BKN050
BECMG 2610/2612 15005KT

Example: see airport list